Time;durP1;ratioP1;P1;durP2;ratioP2;P2;SDS_P1;SDS_P2;PMS_P1;PMS_P2;Temp;Humidity;BMP_temperature;BMP_pressure;BME280_temperature;BME280_humidity;BME280_pressure;Samples;Min_cycle;Max_cycle;Signal;HPM_P1;HPM_P2
2022/01/03 00:01:16;;;;;;;2.27;1.10;;;12.10;99.90;;;;;;4956500;28;20469;-72
2022/01/03 00:03:42;;;;;;;2.97;1.13;;;12.10;99.90;;;;;;4943975;29;20960;-71
2022/01/03 00:06:08;;;;;;;8.37;1.57;;;12.20;99.90;;;;;;4955946;28;20423;-72
2022/01/03 00:08:34;;;;;;;4.80;1.10;;;12.20;99.90;;;;;;4956092;28;20432;-72
2022/01/03 00:11:00;;;;;;;5.87;1.17;;;12.20;99.90;;;;;;4955754;28;20939;-72
2022/01/03 00:13:26;;;;;;;2.93;1.00;;;12.20;99.90;;;;;;4936358;29;20183;-72
2022/01/03 00:15:55;;;;;;;2.90;0.87;;;12.20;99.90;;;;;;4936199;29;20192;-72
2022/01/03 00:18:22;;;;;;;4.87;1.00;;;12.20;99.90;;;;;;4936189;29;20442;-72
2022/01/03 00:20:57;;;;;;;3.77;1.20;;;12.20;99.90;;;;;;4935963;29;20453;-72
2022/01/03 00:23:32;;;;;;;3.80;1.00;;;12.20;99.90;;;;;;4935616;29;20455;-72
2022/01/03 00:26:00;;;;;;;3.85;1.20;;;12.20;99.90;;;;;;4934806;29;20823;-71
2022/01/03 00:28:35;;;;;;;1.73;0.90;;;12.20;99.90;;;;;;4936264;29;20238;-72
2022/01/03 00:31:03;;;;;;;2.40;0.90;;;12.20;99.90;;;;;;4935496;29;20469;-72
2022/01/03 00:33:30;;;;;;;5.37;0.80;;;12.20;99.90;;;;;;4935463;29;20430;-72
2022/01/03 00:35:59;;;;;;;1.73;1.07;;;12.30;99.90;;;;;;4947992;29;20494;-71
2022/01/03 00:38:27;;;;;;;3.53;0.70;;;12.30;99.90;;;;;;4955105;28;20443;-72
2022/01/03 00:40:53;;;;;;;6.40;1.10;;;12.30;99.90;;;;;;4954741;28;20478;-71
2022/01/03 00:43:18;;;;;;;1.20;1.10;;;12.30;99.90;;;;;;4954471;29;20458;-71
2022/01/03 00:45:44;;;;;;;8.53;1.50;;;12.30;99.90;;;;;;4954744;28;20245;-72
2022/01/03 00:48:11;;;;;;;1.53;0.70;;;12.30;99.90;;;;;;4954747;28;20243;-72
2022/01/03 00:50:38;;;;;;;5.30;1.00;;;12.30;99.90;;;;;;4954376;28;20605;-72
2022/01/03 00:53:04;;;;;;;2.53;1.27;;;12.30;99.90;;;;;;4954461;28;20418;-71
2022/01/03 00:55:30;;;;;;;4.23;1.20;;;12.30;99.90;;;;;;4954309;28;20462;-72
2022/01/03 00:58:05;;;;;;;7.13;1.57;;;12.30;99.90;;;;;;4954793;28;20434;-72
2022/01/03 05:32:22;;;;;;;9.80;1.53;;;9.30;99.90;;;;;;5283211;23;20503;-76
2022/01/03 05:34:48;;;;;;;9.07;1.17;;;9.30;99.90;;;;;;4956872;28;20832;-76
2022/01/03 05:37:13;;;;;;;10.57;1.40;;;9.30;99.90;;;;;;4958685;28;20205;-77
2022/01/03 05:39:39;;;;;;;3.83;1.23;;;9.20;99.90;;;;;;4953292;28;20197;-76
2022/01/03 05:42:05;;;;;;;2.80;1.20;;;9.20;99.90;;;;;;4971727;28;20606;-77
2022/01/03 05:44:30;;;;;;;3.27;1.20;;;9.10;99.90;;;;;;4975627;28;20198;-76
2022/01/03 05:46:56;;;;;;;4.83;1.00;;;9.10;99.90;;;;;;4972907;28;20177;-77
2022/01/03 05:49:21;;;;;;;8.33;1.80;;;9.10;99.90;;;;;;4971502;28;20189;-75
2022/01/03 05:51:47;;;;;;;10.03;1.37;;;9.00;99.90;;;;;;4973191;28;20237;-76
2022/01/03 05:54:13;;;;;;;2.53;1.10;;;9.00;99.90;;;;;;4972724;28;20204;-76
2022/01/03 05:56:38;;;;;;;11.67;2.30;;;9.00;99.90;;;;;;4972845;28;20180;-76
2022/01/03 05:59:07;;;;;;;5.67;2.03;;;9.00;99.90;;;;;;4972792;28;20836;-76
2022/01/03 06:01:34;;;;;;;7.20;1.53;;;9.00;99.90;;;;;;4972782;28;20213;-77
2022/01/03 06:04:11;;;;;;;5.00;1.20;;;9.00;99.90;;;;;;4971464;28;20441;-76
2022/01/03 06:06:54;;;;;;;8.93;1.73;;;8.90;99.90;;;;;;4972961;28;20414;-76
2022/01/03 06:09:21;;;;;;;7.77;1.57;;;8.90;99.90;;;;;;4972845;28;20472;-76
2022/01/03 06:11:46;;;;;;;5.33;1.67;;;8.90;99.90;;;;;;4971558;28;20440;-76
2022/01/03 06:14:16;;;;;;;6.13;1.27;;;8.90;99.90;;;;;;4972801;28;20470;-76
2022/01/03 06:16:42;;;;;;;7.87;1.93;;;8.90;99.90;;;;;;4972214;28;20306;-78
2022/01/03 06:19:08;;;;;;;6.63;1.50;;;8.90;99.90;;;;;;4972612;28;20410;-79
2022/01/03 06:21:40;;;;;;;3.07;1.10;;;8.90;99.90;;;;;;4972240;28;20458;-76
2022/01/03 06:24:07;;;;;;;3.03;2.00;;;8.90;99.90;;;;;;4976549;28;20181;-76
2022/01/03 06:26:32;;;;;;;12.90;1.87;;;8.90;99.90;;;;;;4981744;28;20910;-77
2022/01/03 06:28:58;;;;;;;5.80;1.27;;;8.90;99.90;;;;;;4979263;28;20427;-77
2022/01/03 06:31:23;;;;;;;6.13;1.67;;;8.90;99.90;;;;;;4976219;28;20214;-77
2022/01/03 06:33:49;;;;;;;10.07;1.33;;;8.90;99.90;;;;;;4976320;28;20183;-77
2022/01/03 06:36:14;;;;;;;4.03;1.30;;;8.90;99.90;;;;;;4976648;28;20645;-76
2022/01/03 06:38:40;;;;;;;5.07;1.10;;;8.80;99.90;;;;;;4972611;28;20177;-76
2022/01/03 06:41:05;;;;;;;5.37;1.10;;;8.90;99.90;;;;;;4970968;28;20203;-76
2022/01/03 06:43:31;;;;;;;3.40;1.50;;;8.90;99.90;;;;;;4973003;28;20208;-78
2022/01/03 06:45:56;;;;;;;11.30;1.87;;;8.90;99.90;;;;;;4973995;28;20208;-76
2022/01/03 06:48:22;;;;;;;3.33;1.30;;;8.90;99.90;;;;;;4975033;28;20201;-72
2022/01/03 06:50:47;;;;;;;4.50;1.20;;;8.90;99.90;;;;;;4972199;28;20205;-73
2022/01/03 06:53:13;;;;;;;5.33;1.17;;;8.90;99.90;;;;;;4973040;28;20205;-72
2022/01/03 06:55:39;;;;;;;4.20;1.20;;;9.00;99.90;;;;;;4973882;28;20222;-73
2022/01/03 06:58:04;;;;;;;3.63;1.30;;;9.00;99.90;;;;;;4973471;28;20195;-72
2022/01/03 07:00:30;;;;;;;8.67;1.30;;;9.00;99.90;;;;;;4971243;28;20206;-72
2022/01/03 07:02:55;;;;;;;3.17;1.20;;;9.00;99.90;;;;;;4973274;28;20191;-72
2022/01/03 07:05:20;;;;;;;3.70;1.00;;;9.00;99.90;;;;;;4973338;28;20330;-72
2022/01/03 07:07:46;;;;;;;6.70;1.93;;;8.90;99.90;;;;;;4973342;28;20230;-72
2022/01/03 07:10:12;;;;;;;8.30;1.63;;;9.00;99.90;;;;;;4969954;28;20293;-72
2022/01/03 07:12:38;;;;;;;5.87;1.70;;;8.90;99.90;;;;;;4971591;28;20231;-72
2022/01/03 07:20:33;;;;;;;8.63;1.40;;;8.90;99.90;;;;;;4972535;28;20475;-72
2022/01/03 07:23:00;;;;;;;6.53;2.20;;;8.90;99.90;;;;;;4971848;28;20431;-72
2022/01/03 07:25:25;;;;;;;3.33;1.33;;;8.90;99.90;;;;;;4973334;28;20206;-72
2022/01/03 07:27:51;;;;;;;4.33;1.30;;;8.90;99.90;;;;;;4972656;28;20456;-72
2022/01/03 07:30:18;;;;;;;8.73;1.27;;;8.80;99.90;;;;;;4972613;28;20271;-72
2022/01/03 07:32:43;;;;;;;10.80;1.70;;;8.80;99.90;;;;;;4971566;28;20226;-71
2022/01/03 07:35:13;;;;;;;10.33;2.03;;;8.80;99.90;;;;;;4972058;28;20470;-72
2022/01/03 07:37:40;;;;;;;8.43;1.77;;;8.80;99.90;;;;;;4973118;28;20190;-72
2022/01/03 07:40:06;;;;;;;4.10;1.43;;;8.80;99.90;;;;;;4972990;28;20461;-73
2022/01/03 07:42:31;;;;;;;8.27;1.30;;;8.80;99.90;;;;;;4971414;28;20466;-72
2022/01/03 07:44:57;;;;;;;4.43;1.37;;;8.80;99.90;;;;;;4972537;28;20426;-72
2022/01/03 07:47:22;;;;;;;9.80;1.47;;;8.80;99.90;;;;;;4970569;28;20203;-72
2022/01/03 07:49:48;;;;;;;3.30;1.23;;;8.80;99.90;;;;;;4973853;28;20194;-73
2022/01/03 07:52:14;;;;;;;9.77;2.13;;;8.80;99.90;;;;;;4974491;28;20679;-72
2022/01/03 07:54:39;;;;;;;3.67;1.20;;;8.80;99.90;;;;;;4973699;28;20472;-72
2022/01/03 07:57:05;;;;;;;5.40;1.70;;;8.80;99.90;;;;;;4974437;28;20720;-72
2022/01/03 07:59:30;;;;;;;6.53;1.30;;;8.80;99.90;;;;;;4974528;28;20191;-72
2022/01/03 08:01:56;;;;;;;7.53;1.80;;;8.80;99.90;;;;;;4974395;28;20213;-72
2022/01/03 08:04:21;;;;;;;9.20;1.50;;;8.80;99.90;;;;;;4974014;28;20607;-72
2022/01/03 08:06:47;;;;;;;7.43;1.27;;;8.80;99.90;;;;;;4957292;28;20205;-72
2022/01/03 08:09:12;;;;;;;10.07;1.60;;;8.80;99.90;;;;;;4954979;28;20180;-72
2022/01/03 08:11:38;;;;;;;6.43;2.70;;;8.80;99.90;;;;;;4954775;28;20199;-72
2022/01/03 08:14:03;;;;;;;5.00;1.70;;;8.80;99.90;;;;;;4954125;28;20679;-72
2022/01/03 08:16:31;;;;;;;9.93;1.80;;;8.90;99.90;;;;;;4954925;28;20182;-72
2022/01/03 08:18:57;;;;;;;5.97;1.80;;;8.90;99.90;;;;;;4955118;28;20562;-73
2022/01/03 08:21:23;;;;;;;5.93;1.30;;;8.90;99.90;;;;;;4956870;28;20448;-72
2022/01/03 08:23:48;;;;;;;8.70;1.60;;;8.90;99.90;;;;;;4954037;28;20190;-72
2022/01/03 08:26:14;;;;;;;7.27;2.07;;;8.90;99.90;;;;;;4952801;28;20181;-72
2022/01/03 08:28:39;;;;;;;3.33;1.20;;;8.90;99.90;;;;;;4954029;28;20684;-72
2022/01/03 08:31:05;;;;;;;2.20;1.17;;;9.00;99.90;;;;;;4966824;28;20222;-72
2022/01/03 08:33:30;;;;;;;7.60;1.90;;;9.00;99.90;;;;;;4970593;28;20199;-72
2022/01/03 08:35:57;;;;;;;2.97;1.23;;;9.10;99.90;;;;;;4969245;28;20215;-73
2022/01/03 08:38:23;;;;;;;5.33;1.67;;;9.10;99.90;;;;;;4971393;28;20202;-71
2022/01/03 08:40:49;;;;;;;3.13;1.57;;;9.10;99.90;;;;;;4971374;28;20950;-72
2022/01/03 08:43:14;;;;;;;7.80;1.27;;;9.10;99.90;;;;;;4969948;28;20195;-72
2022/01/03 08:45:40;;;;;;;6.90;1.77;;;9.20;99.90;;;;;;4970812;28;20276;-72
2022/01/03 08:48:05;;;;;;;6.23;2.00;;;9.20;99.90;;;;;;4971121;28;20199;-72
2022/01/03 08:50:31;;;;;;;5.30;2.33;;;9.20;99.90;;;;;;4970151;28;20201;-72
2022/01/03 08:52:56;;;;;;;12.10;2.00;;;9.30;99.90;;;;;;4970885;28;20199;-72
2022/01/03 08:55:22;;;;;;;9.47;2.37;;;9.30;99.90;;;;;;4970953;28;20212;-72
2022/01/03 08:57:51;;;;;;;15.70;1.93;;;9.30;99.90;;;;;;4970623;28;20616;-72
2022/01/03 09:00:18;;;;;;;8.83;1.93;;;9.40;99.90;;;;;;4968614;28;20195;-73
2022/01/03 09:02:44;;;;;;;5.93;1.63;;;9.40;99.90;;;;;;4968509;28;20509;-72
2022/01/03 09:05:09;;;;;;;7.03;2.23;;;9.50;99.90;;;;;;4970965;28;20460;-73
2022/01/03 09:07:36;;;;;;;4.93;1.70;;;9.50;99.90;;;;;;4970089;28;20203;-72
2022/01/03 09:10:01;;;;;;;8.20;1.80;;;9.60;99.90;;;;;;4971056;28;20185;-72
2022/01/03 09:12:27;;;;;;;6.23;1.70;;;9.60;99.90;;;;;;4970988;28;20781;-72
2022/01/03 09:14:54;;;;;;;8.90;2.33;;;9.70;99.90;;;;;;4970680;28;20831;-72
2022/01/03 09:17:20;;;;;;;2.03;1.80;;;9.80;99.90;;;;;;4967881;28;20239;-72
2022/01/03 09:19:45;;;;;;;10.27;2.10;;;9.80;99.90;;;;;;4969155;28;20974;-72
2022/01/03 09:22:16;;;;;;;6.87;1.90;;;9.90;99.90;;;;;;4969055;28;20236;-72
2022/01/03 09:29:57;;;;;;;10.73;2.53;;;10.10;99.90;;;;;;4969165;28;20934;-72
2022/01/03 09:32:22;;;;;;;6.53;2.03;;;10.10;99.90;;;;;;4970102;28;20464;-72
2022/01/03 09:34:48;;;;;;;7.90;2.57;;;10.10;99.90;;;;;;4968230;28;20569;-72
2022/01/03 09:37:17;;;;;;;9.50;2.33;;;10.20;99.90;;;;;;4970637;28;20550;-72
2022/01/03 09:39:42;;;;;;;2.80;2.13;;;10.20;99.90;;;;;;4972634;28;20187;-73
2022/01/03 09:42:13;;;;;;;5.07;2.17;;;10.30;99.90;;;;;;4972307;28;20441;-71
2022/01/03 09:44:38;;;;;;;4.90;1.30;;;10.30;99.90;;;;;;4972717;28;20190;-72
2022/01/03 09:47:05;;;;;;;8.73;1.77;;;10.30;99.90;;;;;;4972718;28;20417;-73
2022/01/03 09:49:36;;;;;;;6.20;1.40;;;10.30;99.90;;;;;;4972203;28;20585;-73
2022/01/03 09:52:04;;;;;;;4.40;2.10;;;10.30;99.90;;;;;;4972728;28;20437;-72
2022/01/03 09:54:30;;;;;;;5.40;1.93;;;10.30;99.90;;;;;;4956726;28;20557;-73
2022/01/03 09:56:59;;;;;;;7.23;2.03;;;10.40;99.90;;;;;;4953355;28;20437;-72
2022/01/03 09:59:26;;;;;;;11.37;1.97;;;10.40;99.90;;;;;;4952370;28;20230;-72
2022/01/03 10:01:53;;;;;;;15.67;2.63;;;10.40;99.90;;;;;;4953290;28;20427;-72
2022/01/03 10:04:19;;;;;;;7.47;1.60;;;10.40;99.90;;;;;;4952996;28;20458;-72
2022/01/03 10:06:45;;;;;;;3.97;1.47;;;10.40;99.90;;;;;;4953365;28;20424;-72
2022/01/03 10:09:10;;;;;;;4.03;1.23;;;10.50;99.90;;;;;;4952544;28;20425;-72
2022/01/03 10:11:37;;;;;;;10.43;2.50;;;10.50;99.90;;;;;;4962748;28;20613;-72
2022/01/03 10:14:02;;;;;;;7.80;1.70;;;10.60;99.90;;;;;;4969862;28;20244;-72
2022/01/03 10:16:29;;;;;;;6.40;1.80;;;10.60;99.90;;;;;;4970166;28;20824;-73
2022/01/03 10:18:54;;;;;;;6.10;1.43;;;10.70;99.90;;;;;;4970561;28;20187;-72
2022/01/03 10:21:40;;;;;;;5.23;1.47;;;10.70;99.90;;;;;;4969108;28;20437;-72
2022/01/03 10:24:06;;;;;;;5.33;1.20;;;10.80;99.90;;;;;;4969652;28;20194;-72
2022/01/03 10:26:32;;;;;;;3.03;0.93;;;10.80;99.90;;;;;;4968400;28;20809;-72
2022/01/03 10:29:33;;;;;;;1.93;1.10;;;10.80;99.90;;;;;;4969721;28;20438;-72
2022/01/03 10:32:01;;;;;;;4.47;1.43;;;10.90;99.90;;;;;;4947955;28;20247;-72
2022/01/03 10:34:27;;;;;;;11.07;2.37;;;11.00;99.90;;;;;;4969592;28;20473;-72
2022/01/03 10:36:56;;;;;;;7.93;1.20;;;11.00;99.90;;;;;;4970166;28;20428;-72
2022/01/03 10:39:27;;;;;;;3.03;1.30;;;11.00;99.90;;;;;;4969840;28;20439;-72
2022/01/03 10:42:18;;;;;;;3.43;1.80;;;11.00;99.90;;;;;;4967158;28;20534;-72
2022/01/03 10:44:45;;;;;;;4.77;2.13;;;11.00;99.90;;;;;;4969701;28;20437;-72
2022/01/03 10:47:18;;;;;;;6.50;2.27;;;11.00;99.90;;;;;;4968401;28;20455;-72
2022/01/03 10:49:45;;;;;;;6.03;2.90;;;11.00;99.90;;;;;;4969523;28;20438;-73
2022/01/03 10:52:12;;;;;;;4.73;1.63;;;11.10;99.90;;;;;;4968917;28;20437;-73
2022/01/03 10:54:39;;;;;;;3.77;1.80;;;11.10;99.90;;;;;;4969174;28;20465;-73
2022/01/03 10:57:04;;;;;;;9.57;2.07;;;11.10;99.90;;;;;;4969292;28;20850;-72
2022/01/03 10:59:31;;;;;;;6.37;2.07;;;11.20;99.90;;;;;;4969791;28;20506;-72
2022/01/03 11:01:56;;;;;;;6.60;1.50;;;11.30;99.90;;;;;;4968973;28;20597;-75
2022/01/03 11:04:46;;;;;;;3.20;1.00;;;11.30;99.90;;;;;;4967917;28;20445;-74
2022/01/03 11:13:18;;;;;;;7.37;3.10;;;11.50;99.90;;;;;;4971905;28;20437;-72
2022/01/03 11:16:02;;;;;;;7.40;2.13;;;11.60;99.90;;;;;;4972729;28;20496;-74
2022/01/03 11:18:32;;;;;;;3.93;1.40;;;11.60;99.90;;;;;;4974188;28;20430;-74
2022/01/03 11:21:14;;;;;;;2.40;1.90;;;11.60;99.90;;;;;;4973366;28;20438;-72
2022/01/03 11:23:42;;;;;;;7.03;2.67;;;11.70;99.90;;;;;;4971798;28;20436;-72
2022/01/03 11:26:11;;;;;;;1.83;1.50;;;11.70;99.90;;;;;;4972756;28;20497;-71
2022/01/03 11:28:37;;;;;;;3.07;1.13;;;11.70;99.90;;;;;;4972572;28;20473;-71
2022/01/03 11:31:04;;;;;;;3.07;1.10;;;11.80;99.90;;;;;;4972501;28;20805;-75
2022/01/03 11:33:29;;;;;;;5.17;1.10;;;11.80;99.90;;;;;;4972237;28;20438;-74
2022/01/03 11:35:58;;;;;;;3.40;1.00;;;11.80;99.90;;;;;;4971794;28;21064;-75
2022/01/03 11:38:28;;;;;;;4.47;1.00;;;11.80;99.90;;;;;;4973360;28;20424;-74
2022/01/03 11:40:54;;;;;;;2.40;1.00;;;11.90;99.90;;;;;;4972855;28;20437;-74
2022/01/03 11:43:19;;;;;;;3.50;0.80;;;11.90;99.90;;;;;;4972335;28;20443;-75
2022/01/03 11:45:45;;;;;;;2.30;1.47;;;12.00;99.90;;;;;;4972561;28;20206;-75
2022/01/03 11:48:12;;;;;;;4.40;1.13;;;12.00;99.90;;;;;;4972663;28;20196;-73
2022/01/03 11:50:39;;;;;;;2.87;1.63;;;12.00;99.90;;;;;;4972350;28;20191;-73
2022/01/03 11:53:07;;;;;;;3.60;1.70;;;12.00;99.90;;;;;;4972200;28;20434;-74
2022/01/03 11:55:36;;;;;;;4.60;2.80;;;12.00;99.90;;;;;;4970775;28;20471;-75
2022/01/03 11:58:27;;;;;;;4.30;1.60;;;12.10;99.90;;;;;;4972397;28;20832;-74
2022/01/03 12:03:47;;;;;;;1.60;0.80;;;12.10;99.90;;;;;;4972214;28;20453;-75
2022/01/03 12:06:24;;;;;;;3.40;1.37;;;12.20;99.90;;;;;;4969647;28;20597;-75
2022/01/03 12:08:58;;;;;;;2.37;0.70;;;12.20;99.90;;;;;;4972380;28;20431;-76
2022/01/03 12:11:26;;;;;;;8.40;1.63;;;12.20;99.90;;;;;;4971583;28;20804;-75
2022/01/03 12:14:05;;;;;;;1.33;0.60;;;12.20;99.90;;;;;;4971746;28;20434;-75
2022/01/03 12:16:44;;;;;;;2.30;0.80;;;12.20;99.90;;;;;;4971398;28;20502;-75
2022/01/03 12:19:13;;;;;;;1.73;0.80;;;12.20;99.90;;;;;;4971893;28;20458;-76
2022/01/03 12:21:50;;;;;;;2.50;1.40;;;12.30;99.90;;;;;;4971257;28;20999;-75
2022/01/03 12:24:40;;;;;;;4.83;0.80;;;12.20;99.90;;;;;;4970935;28;20442;-76
2022/01/03 12:27:28;;;;;;;1.73;0.63;;;12.20;99.90;;;;;;4970967;28;20434;-75
2022/01/03 12:29:54;;;;;;;0.67;0.50;;;12.20;99.90;;;;;;4971722;28;20430;-74
2022/01/03 12:32:36;;;;;;;1.30;0.60;;;12.20;99.90;;;;;;4971565;28;20447;-75
2022/01/03 12:35:07;;;;;;;7.33;0.70;;;12.20;99.90;;;;;;4966477;28;20250;-75
2022/01/03 12:37:38;;;;;;;8.23;0.80;;;12.20;99.90;;;;;;4969800;28;20446;-75
2022/01/03 12:40:04;;;;;;;4.37;1.53;;;12.20;99.90;;;;;;4968229;28;20461;-75
2022/01/03 12:42:53;;;;;;;1.70;0.50;;;12.10;99.90;;;;;;4968692;28;21776;-75
2022/01/03 12:45:32;;;;;;;2.70;0.70;;;12.20;99.90;;;;;;4970362;28;20242;-75
2022/01/03 12:50:41;;;;;;;5.10;0.80;;;12.10;99.90;;;;;;4970075;28;21011;-75
2022/01/03 12:53:09;;;;;;;5.70;0.90;;;12.10;99.90;;;;;;4969217;28;20884;-75
2022/01/03 12:55:38;;;;;;;1.13;0.87;;;12.10;99.90;;;;;;4970017;28;20483;-74
2022/01/03 12:58:18;;;;;;;6.30;0.70;;;12.10;99.90;;;;;;4968731;28;20456;-75
2022/01/03 13:00:58;;;;;;;0.90;0.70;;;12.00;99.90;;;;;;4968968;28;20432;-76
2022/01/03 13:03:38;;;;;;;0.70;0.70;;;12.00;99.90;;;;;;4970251;28;20486;-74
2022/01/03 13:06:11;;;;;;;5.13;1.00;;;12.00;99.90;;;;;;4969544;28;20562;-75
2022/01/03 13:08:51;;;;;;;2.03;0.70;;;12.00;99.90;;;;;;4969839;28;20464;-75
2022/01/03 13:11:26;;;;;;;4.37;1.03;;;12.00;99.90;;;;;;4970032;28;20457;-74
2022/01/03 13:13:52;;;;;;;2.50;0.80;;;11.90;99.90;;;;;;4970420;28;20447;-74
2022/01/03 13:16:30;;;;;;;3.70;0.90;;;11.90;99.90;;;;;;4966937;28;20493;-76
2022/01/03 13:19:12;;;;;;;2.20;0.80;;;12.00;99.90;;;;;;4969048;28;20941;-74
2022/01/03 13:21:48;;;;;;;2.90;1.10;;;12.00;99.90;;;;;;4969529;28;21106;-74
2022/01/03 13:24:35;;;;;;;1.50;0.83;;;12.00;99.90;;;;;;4969892;28;20540;-74
2022/01/03 13:27:16;;;;;;;3.87;0.80;;;11.90;99.90;;;;;;4956355;28;20528;-75
2022/01/03 13:29:47;;;;;;;1.00;0.73;;;12.00;99.90;;;;;;4968655;28;20437;-74
2022/01/03 13:32:16;;;;;;;5.20;1.10;;;12.10;99.90;;;;;;4969189;28;20465;-75
2022/01/03 13:34:43;;;;;;;6.30;0.97;;;12.10;99.90;;;;;;4969732;28;20478;-75
2022/01/03 13:37:09;;;;;;;3.90;0.97;;;12.10;99.90;;;;;;4968387;28;20459;-75
2022/01/03 13:39:38;;;;;;;4.20;0.87;;;12.20;99.90;;;;;;4969638;28;20461;-74
2022/01/03 13:42:08;;;;;;;2.50;1.13;;;12.30;99.90;;;;;;4969535;28;20219;-75
2022/01/03 13:50:13;;;;;;;4.93;0.90;;;12.30;99.90;;;;;;4968935;28;20494;-74
2022/01/03 13:52:42;;;;;;;3.80;0.80;;;12.40;99.90;;;;;;4969757;28;20435;-76
2022/01/03 13:55:17;;;;;;;2.10;0.80;;;12.30;99.90;;;;;;4969260;28;20497;-75
2022/01/03 13:57:44;;;;;;;4.63;1.37;;;12.30;99.90;;;;;;4969912;28;21148;-74
2022/01/03 14:00:11;;;;;;;1.97;0.70;;;12.30;99.90;;;;;;4968510;28;20438;-75
2022/01/03 14:02:39;;;;;;;3.00;0.90;;;12.30;99.90;;;;;;4967513;28;20467;-76
2022/01/03 14:05:05;;;;;;;1.67;0.60;;;12.30;99.90;;;;;;4968899;28;20543;-74
2022/01/03 14:07:31;;;;;;;7.40;1.17;;;12.30;99.90;;;;;;4968976;28;20544;-76
2022/01/03 14:10:00;;;;;;;1.63;0.77;;;12.30;99.90;;;;;;4969406;28;20536;-74
2022/01/03 14:12:28;;;;;;;1.33;0.70;;;12.30;99.90;;;;;;4968735;28;20227;-75
2022/01/03 14:15:01;;;;;;;6.70;0.73;;;12.20;99.90;;;;;;4968796;28;21253;-75
2022/01/03 14:17:28;;;;;;;1.43;0.80;;;12.20;99.90;;;;;;4968970;28;20819;-75
2022/01/03 14:20:01;;;;;;;2.63;0.80;;;12.20;99.90;;;;;;4969308;28;20446;-74
2022/01/03 14:22:36;;;;;;;3.47;0.90;;;12.10;99.90;;;;;;4968941;28;20459;-75
2022/01/03 14:25:11;;;;;;;2.73;0.77;;;12.00;99.90;;;;;;4969644;28;20527;-74
2022/01/03 14:27:48;;;;;;;4.20;0.87;;;12.00;99.90;;;;;;4970291;28;20462;-75
2022/01/03 14:30:27;;;;;;;0.80;0.80;;;12.00;99.90;;;;;;4970155;28;20469;-75
2022/01/03 14:32:57;;;;;;;5.00;0.77;;;12.00;99.90;;;;;;4968662;28;20485;-74
2022/01/03 14:35:39;;;;;;;3.07;0.83;;;12.00;99.90;;;;;;4968989;28;20482;-76
2022/01/03 14:38:11;;;;;;;2.07;1.00;;;11.90;99.90;;;;;;4969153;28;20438;-74
2022/01/03 14:40:41;;;;;;;1.43;0.90;;;11.90;99.90;;;;;;4969375;28;20434;-74
2022/01/03 14:43:08;;;;;;;2.00;1.00;;;11.90;99.90;;;;;;4968590;28;20437;-75
2022/01/03 14:45:35;;;;;;;2.50;0.93;;;11.80;99.90;;;;;;4973017;28;20497;-75
2022/01/03 14:48:02;;;;;;;6.97;1.40;;;11.80;99.90;;;;;;4972781;28;20521;-75
2022/01/03 14:50:32;;;;;;;8.57;1.27;;;11.80;99.90;;;;;;4973427;28;20481;-75
2022/01/03 14:53:00;;;;;;;2.13;1.17;;;11.80;99.90;;;;;;4972153;28;20432;-76
2022/01/03 14:55:40;;;;;;;10.73;1.20;;;11.80;99.90;;;;;;4972695;28;20489;-75
2022/01/03 14:58:07;;;;;;;1.87;0.70;;;11.70;99.90;;;;;;4972684;28;20445;-74
2022/01/03 15:00:35;;;;;;;2.77;1.13;;;11.70;99.90;;;;;;4972998;28;20955;-74
2022/01/03 15:03:01;;;;;;;1.87;0.83;;;11.70;99.90;;;;;;4971260;28;20453;-76
2022/01/03 15:05:26;;;;;;;1.50;0.70;;;11.60;99.90;;;;;;4972909;28;20963;-75
2022/01/03 15:07:53;;;;;;;8.40;0.93;;;11.60;99.90;;;;;;4973302;28;20195;-75
2022/01/03 15:10:19;;;;;;;4.20;0.80;;;11.60;99.90;;;;;;4973041;28;20286;-76
2022/01/03 15:12:53;;;;;;;2.20;1.33;;;11.50;99.90;;;;;;4973041;28;20468;-73
2022/01/03 15:15:18;;;;;;;1.10;0.60;;;11.60;99.90;;;;;;4972770;28;20207;-75
2022/01/03 15:17:44;;;;;;;2.47;0.90;;;11.50;99.90;;;;;;4973069;28;20459;-75
2022/01/03 15:20:11;;;;;;;3.40;1.00;;;11.50;99.90;;;;;;4972839;28;20199;-75
2022/01/03 15:22:37;;;;;;;2.30;1.20;;;11.40;99.90;;;;;;4972948;28;20195;-75
2022/01/03 15:25:04;;;;;;;0.63;0.63;;;11.50;99.90;;;;;;4972362;28;20433;-75
2022/01/03 15:27:30;;;;;;;1.90;0.73;;;11.50;99.90;;;;;;4972573;28;20886;-75
2022/01/03 15:29:55;;;;;;;7.83;1.27;;;11.40;99.90;;;;;;4972922;28;20469;-74
2022/01/03 15:32:21;;;;;;;3.10;0.97;;;11.30;99.90;;;;;;4972297;28;20270;-75
2022/01/03 15:34:47;;;;;;;4.27;1.53;;;11.30;99.90;;;;;;4971750;28;20200;-76
2022/01/03 15:37:13;;;;;;;2.50;1.10;;;11.30;99.90;;;;;;4972397;28;20192;-75
2022/01/03 15:39:43;;;;;;;2.30;0.90;;;11.20;99.90;;;;;;4972901;28;20193;-75
2022/01/03 15:42:10;;;;;;;3.63;1.47;;;11.20;99.90;;;;;;4972342;28;20471;-75
2022/01/03 15:44:36;;;;;;;4.67;1.87;;;11.10;99.90;;;;;;4970215;28;20480;-76
2022/01/03 15:47:04;;;;;;;3.43;1.27;;;11.20;99.90;;;;;;4972226;28;20438;-75
2022/01/03 15:49:30;;;;;;;4.50;2.77;;;11.20;99.90;;;;;;4972234;28;20819;-76
2022/01/03 15:51:56;;;;;;;6.37;2.00;;;11.10;99.90;;;;;;4971273;28;20454;-77
2022/01/03 15:54:21;;;;;;;6.30;1.73;;;11.10;99.90;;;;;;4972079;28;20496;-75
2022/01/03 15:56:48;;;;;;;9.50;2.13;;;11.10;99.90;;;;;;4970878;28;20199;-75
2022/01/03 15:59:15;;;;;;;9.03;1.27;;;11.10;99.90;;;;;;4972758;28;20209;-76
2022/01/03 16:01:41;;;;;;;2.23;1.63;;;11.00;99.90;;;;;;4971659;28;20525;-78
2022/01/03 16:04:07;;;;;;;4.13;0.90;;;11.00;99.90;;;;;;4971753;28;20405;-77
2022/01/03 16:06:33;;;;;;;4.27;1.30;;;11.00;99.90;;;;;;4971551;28;20524;-78
2022/01/03 16:08:58;;;;;;;2.20;1.17;;;11.00;99.90;;;;;;4972230;28;20205;-77
2022/01/03 16:11:25;;;;;;;1.77;1.10;;;10.90;99.90;;;;;;4972393;28;20208;-78
2022/01/03 16:13:51;;;;;;;2.00;1.07;;;10.80;99.90;;;;;;4970696;28;20193;-76
2022/01/03 16:16:17;;;;;;;2.20;1.27;;;10.80;99.90;;;;;;4971596;28;21012;-78
2022/01/03 16:18:42;;;;;;;4.00;0.90;;;10.80;99.90;;;;;;4971916;28;21241;-78
2022/01/03 16:21:08;;;;;;;2.50;0.90;;;10.70;99.90;;;;;;4970770;28;20198;-78
2022/01/03 16:23:35;;;;;;;3.50;1.30;;;10.70;99.90;;;;;;4972821;28;20199;-79
2022/01/03 16:26:00;;;;;;;3.17;0.80;;;10.60;99.90;;;;;;4972837;28;20437;-79
2022/01/03 16:28:26;;;;;;;2.40;1.10;;;10.60;99.90;;;;;;4970869;28;20456;-79
2022/01/03 16:30:52;;;;;;;11.63;1.10;;;10.60;99.90;;;;;;4973021;28;20561;-79
2022/01/03 16:33:18;;;;;;;4.03;1.10;;;10.60;99.90;;;;;;4973032;28;20633;-79
2022/01/03 16:35:44;;;;;;;2.90;0.80;;;10.60;99.90;;;;;;4971050;28;20214;-79
2022/01/03 16:38:11;;;;;;;2.80;1.33;;;10.60;99.90;;;;;;4973312;28;20835;-79
2022/01/03 16:40:37;;;;;;;2.70;1.10;;;10.60;99.90;;;;;;4974060;28;20203;-78
2022/01/03 16:43:03;;;;;;;3.13;0.80;;;10.60;99.90;;;;;;4973137;28;20452;-79
2022/01/03 16:45:28;;;;;;;4.57;0.90;;;10.50;99.90;;;;;;4972192;28;20438;-78
2022/01/03 16:47:54;;;;;;;4.37;1.27;;;10.50;99.90;;;;;;4971537;28;20269;-78
2022/01/03 16:50:23;;;;;;;2.50;1.40;;;10.50;99.90;;;;;;4971484;28;20209;-78
2022/01/03 16:52:49;;;;;;;1.37;1.10;;;10.50;99.90;;;;;;4972257;28;20205;-78
2022/01/03 16:55:15;;;;;;;2.03;1.30;;;10.50;99.90;;;;;;4973479;28;20535;-79
2022/01/03 16:57:41;;;;;;;1.90;0.80;;;10.50;99.90;;;;;;4974630;28;20256;-78
2022/01/03 17:00:08;;;;;;;5.63;1.10;;;10.60;99.90;;;;;;4972625;28;20782;-78
2022/01/03 17:02:38;;;;;;;2.00;1.30;;;10.60;99.90;;;;;;4972593;28;20205;-78
2022/01/03 17:05:04;;;;;;;3.17;1.23;;;10.60;99.90;;;;;;4971461;28;20918;-78
2022/01/03 17:07:30;;;;;;;5.30;1.23;;;10.60;99.90;;;;;;4970422;28;20434;-78
2022/01/03 17:09:56;;;;;;;3.07;1.13;;;10.60;99.90;;;;;;4970439;28;21006;-78
2022/01/03 17:12:22;;;;;;;4.63;1.40;;;10.60;99.90;;;;;;4971646;28;20195;-78
2022/01/03 17:14:48;;;;;;;6.17;1.57;;;10.60;99.90;;;;;;4969361;28;20542;-78
2022/01/03 17:17:16;;;;;;;3.10;1.57;;;10.60;99.90;;;;;;4971693;28;20467;-78
2022/01/03 17:19:41;;;;;;;4.43;1.23;;;10.60;99.90;;;;;;4969875;28;20199;-78
2022/01/03 17:22:09;;;;;;;2.30;0.97;;;10.60;99.90;;;;;;4971177;28;20434;-78
2022/01/03 17:24:35;;;;;;;2.97;1.63;;;10.60;99.90;;;;;;4971021;28;20336;-78
2022/01/03 17:27:01;;;;;;;1.43;1.00;;;10.70;99.90;;;;;;4970494;28;20445;-78
2022/01/03 17:29:27;;;;;;;2.30;1.30;;;10.70;99.90;;;;;;4972500;28;20229;-79
2022/01/03 17:31:53;;;;;;;3.30;1.50;;;10.70;99.90;;;;;;4972565;28;20253;-79
2022/01/03 17:34:19;;;;;;;5.00;1.37;;;10.70;99.90;;;;;;4972930;28;20916;-78
2022/01/03 17:36:45;;;;;;;2.70;0.83;;;10.60;99.90;;;;;;4971460;28;20475;-79
2022/01/03 17:39:11;;;;;;;1.93;1.17;;;10.60;99.90;;;;;;4972679;28;20453;-79
2022/01/03 17:41:37;;;;;;;3.80;1.63;;;10.60;99.90;;;;;;4972256;28;20269;-78
2022/01/03 17:44:03;;;;;;;2.73;1.53;;;10.60;99.90;;;;;;4972665;28;20195;-78
2022/01/03 17:46:28;;;;;;;5.07;1.70;;;10.60;99.90;;;;;;4970088;28;20201;-79
2022/01/03 17:48:54;;;;;;;4.17;2.20;;;10.60;99.90;;;;;;4970404;28;20445;-78
2022/01/03 17:51:19;;;;;;;2.03;1.40;;;10.50;99.90;;;;;;4970121;28;20230;-78
2022/01/03 17:53:46;;;;;;;3.90;2.83;;;10.50;99.90;;;;;;4969610;28;20223;-77
2022/01/03 17:56:12;;;;;;;5.43;1.70;;;10.50;99.90;;;;;;4971014;28;20211;-79